sensor_id;sensor_type;location;lat;lon;timestamp;P1;durP1;ratioP1;P2;durP2;ratioP2
37280;SDS011;23169;41.804;12.596;2023-04-01T00:00:52;24.00;;;5.65;;
37280;SDS011;23169;41.804;12.596;2023-04-01T00:03:22;21.17;;;5.80;;
37280;SDS011;23169;41.804;12.596;2023-04-01T00:05:51;28.13;;;6.40;;
37280;SDS011;23169;41.804;12.596;2023-04-01T00:08:21;22.38;;;5.35;;
37280;SDS011;23169;41.804;12.596;2023-04-01T00:10:50;21.85;;;5.65;;
37280;SDS011;23169;41.804;12.596;2023-04-01T00:13:19;21.67;;;5.20;;
37280;SDS011;23169;41.804;12.596;2023-04-01T00:15:48;27.55;;;5.60;;
37280;SDS011;23169;41.804;12.596;2023-04-01T00:18:17;21.20;;;6.40;;
37280;SDS011;23169;41.804;12.596;2023-04-01T00:20:46;25.10;;;5.65;;
37280;SDS011;23169;41.804;12.596;2023-04-01T00:23:18;24.73;;;5.45;;
37280;SDS011;23169;41.804;12.596;2023-04-01T00:25:47;24.65;;;5.85;;
37280;SDS011;23169;41.804;12.596;2023-04-01T00:28:18;22.52;;;6.53;;
37280;SDS011;23169;41.804;12.596;2023-04-01T00:30:47;27.25;;;7.55;;
37280;SDS011;23169;41.804;12.596;2023-04-01T00:33:16;21.60;;;6.25;;
37280;SDS011;23169;41.804;12.596;2023-04-01T00:35:46;22.25;;;5.70;;
37280;SDS011;23169;41.804;12.596;2023-04-01T00:38:14;23.92;;;6.10;;
37280;SDS011;23169;41.804;12.596;2023-04-01T00:40:46;26.88;;;6.40;;
37280;SDS011;23169;41.804;12.596;2023-04-01T00:43:16;24.27;;;6.82;;
37280;SDS011;23169;41.804;12.596;2023-04-01T00:45:48;25.85;;;6.50;;
37280;SDS011;23169;41.804;12.596;2023-04-01T00:48:18;22.15;;;5.65;;
37280;SDS011;23169;41.804;12.596;2023-04-01T00:51:03;24.05;;;6.03;;
37280;SDS011;23169;41.804;12.596;2023-04-01T00:56:09;31.38;;;8.15;;
37280;SDS011;23169;41.804;12.596;2023-04-01T00:58:48;26.50;;;6.57;;
37280;SDS011;23169;41.804;12.596;2023-04-01T01:01:22;20.65;;;5.85;;
37280;SDS011;23169;41.804;12.596;2023-04-01T01:03:52;26.80;;;6.28;;
37280;SDS011;23169;41.804;12.596;2023-04-01T01:09:11;26.08;;;6.65;;
37280;SDS011;23169;41.804;12.596;2023-04-01T01:12:05;25.02;;;6.50;;
37280;SDS011;23169;41.804;12.596;2023-04-01T01:37:34;29.15;;;7.13;;
37280;SDS011;23169;41.804;12.596;2023-04-01T01:40:05;26.80;;;7.57;;
37280;SDS011;23169;41.804;12.596;2023-04-01T01:42:37;36.20;;;9.32;;
37280;SDS011;23169;41.804;12.596;2023-04-01T01:45:09;23.50;;;6.93;;
37280;SDS011;23169;41.804;12.596;2023-04-01T01:47:41;26.48;;;7.75;;
37280;SDS011;23169;41.804;12.596;2023-04-01T01:50:10;29.60;;;8.43;;
37280;SDS011;23169;41.804;12.596;2023-04-01T01:52:40;27.42;;;8.98;;
37280;SDS011;23169;41.804;12.596;2023-04-01T01:55:23;29.67;;;8.30;;
37280;SDS011;23169;41.804;12.596;2023-04-01T01:57:55;27.92;;;9.05;;
37280;SDS011;23169;41.804;12.596;2023-04-01T02:00:29;30.95;;;7.70;;
37280;SDS011;23169;41.804;12.596;2023-04-01T02:02:57;31.52;;;9.13;;
37280;SDS011;23169;41.804;12.596;2023-04-01T02:05:27;30.13;;;7.85;;
37280;SDS011;23169;41.804;12.596;2023-04-01T02:08:02;35.08;;;8.93;;
37280;SDS011;23169;41.804;12.596;2023-04-01T02:10:37;32.92;;;10.00;;
37280;SDS011;23169;41.804;12.596;2023-04-01T02:13:13;35.95;;;8.50;;
37280;SDS011;23169;41.804;12.596;2023-04-01T02:15:47;29.48;;;8.18;;
37280;SDS011;23169;41.804;12.596;2023-04-01T02:18:18;25.92;;;7.57;;
37280;SDS011;23169;41.804;12.596;2023-04-01T02:20:48;32.58;;;8.40;;
37280;SDS011;23169;41.804;12.596;2023-04-01T02:23:18;33.08;;;8.25;;
37280;SDS011;23169;41.804;12.596;2023-04-01T02:25:48;26.17;;;7.45;;
37280;SDS011;23169;41.804;12.596;2023-04-01T02:28:16;42.55;;;11.23;;
37280;SDS011;23169;41.804;12.596;2023-04-01T02:30:48;35.40;;;9.20;;
37280;SDS011;23169;41.804;12.596;2023-04-01T02:33:18;34.83;;;9.50;;
37280;SDS011;23169;41.804;12.596;2023-04-01T02:35:48;32.72;;;9.85;;
37280;SDS011;23169;41.804;12.596;2023-04-01T02:38:17;25.02;;;8.48;;
37280;SDS011;23169;41.804;12.596;2023-04-01T02:40:50;35.55;;;9.55;;
37280;SDS011;23169;41.804;12.596;2023-04-01T02:43:24;35.67;;;10.57;;
37280;SDS011;23169;41.804;12.596;2023-04-01T02:45:53;36.80;;;10.70;;
37280;SDS011;23169;41.804;12.596;2023-04-01T02:48:22;31.73;;;9.32;;
37280;SDS011;23169;41.804;12.596;2023-04-01T02:50:52;34.75;;;9.18;;
37280;SDS011;23169;41.804;12.596;2023-04-01T02:53:21;35.58;;;10.18;;
37280;SDS011;23169;41.804;12.596;2023-04-01T02:55:49;33.17;;;9.85;;
37280;SDS011;23169;41.804;12.596;2023-04-01T02:58:19;29.50;;;9.40;;
37280;SDS011;23169;41.804;12.596;2023-04-01T03:00:48;33.35;;;10.10;;
37280;SDS011;23169;41.804;12.596;2023-04-01T03:03:17;32.67;;;11.20;;
37280;SDS011;23169;41.804;12.596;2023-04-01T03:05:46;39.58;;;9.80;;
37280;SDS011;23169;41.804;12.596;2023-04-01T03:08:16;40.17;;;9.90;;
37280;SDS011;23169;41.804;12.596;2023-04-01T03:10:44;32.08;;;9.68;;
37280;SDS011;23169;41.804;12.596;2023-04-01T03:13:13;35.20;;;10.57;;
37280;SDS011;23169;41.804;12.596;2023-04-01T03:15:43;31.50;;;10.00;;
37280;SDS011;23169;41.804;12.596;2023-04-01T03:18:12;34.65;;;10.75;;
37280;SDS011;23169;41.804;12.596;2023-04-01T03:20:44;34.03;;;9.15;;
37280;SDS011;23169;41.804;12.596;2023-04-01T03:23:14;34.42;;;9.45;;
37280;SDS011;23169;41.804;12.596;2023-04-01T03:25:46;37.55;;;10.10;;
37280;SDS011;23169;41.804;12.596;2023-04-01T03:28:16;35.80;;;10.43;;
37280;SDS011;23169;41.804;12.596;2023-04-01T03:30:44;40.88;;;11.93;;
37280;SDS011;23169;41.804;12.596;2023-04-01T03:33:13;39.30;;;11.25;;
37280;SDS011;23169;41.804;12.596;2023-04-01T03:35:42;32.85;;;10.88;;
37280;SDS011;23169;41.804;12.596;2023-04-01T03:38:10;49.08;;;11.35;;
37280;SDS011;23169;41.804;12.596;2023-04-01T03:40:41;42.05;;;11.70;;
37280;SDS011;23169;41.804;12.596;2023-04-01T03:43:12;38.78;;;11.32;;
37280;SDS011;23169;41.804;12.596;2023-04-01T03:45:46;37.35;;;11.25;;
37280;SDS011;23169;41.804;12.596;2023-04-01T03:48:20;34.33;;;10.23;;
37280;SDS011;23169;41.804;12.596;2023-04-01T03:50:49;32.47;;;9.63;;
37280;SDS011;23169;41.804;12.596;2023-04-01T03:53:18;34.20;;;10.52;;
37280;SDS011;23169;41.804;12.596;2023-04-01T03:55:47;38.38;;;11.10;;
37280;SDS011;23169;41.804;12.596;2023-04-01T03:58:16;33.08;;;10.73;;
37280;SDS011;23169;41.804;12.596;2023-04-01T04:00:46;33.70;;;10.32;;
37280;SDS011;23169;41.804;12.596;2023-04-01T04:03:14;36.17;;;10.15;;
37280;SDS011;23169;41.804;12.596;2023-04-01T04:05:47;38.95;;;12.05;;
37280;SDS011;23169;41.804;12.596;2023-04-01T04:08:22;38.28;;;10.40;;
37280;SDS011;23169;41.804;12.596;2023-04-01T04:10:54;41.15;;;9.77;;
37280;SDS011;23169;41.804;12.596;2023-04-01T04:13:24;36.58;;;10.70;;
37280;SDS011;23169;41.804;12.596;2023-04-01T04:15:53;34.80;;;9.35;;
37280;SDS011;23169;41.804;12.596;2023-04-01T04:18:22;32.97;;;10.30;;
37280;SDS011;23169;41.804;12.596;2023-04-01T04:20:51;36.47;;;10.27;;
37280;SDS011;23169;41.804;12.596;2023-04-01T04:23:20;30.73;;;10.95;;
37280;SDS011;23169;41.804;12.596;2023-04-01T04:25:56;45.72;;;10.80;;
37280;SDS011;23169;41.804;12.596;2023-04-01T04:28:26;39.08;;;10.18;;
37280;SDS011;23169;41.804;12.596;2023-04-01T04:30:55;44.78;;;10.90;;
37280;SDS011;23169;41.804;12.596;2023-04-01T04:33:27;39.83;;;11.52;;
37280;SDS011;23169;41.804;12.596;2023-04-01T04:35:56;39.38;;;11.00;;
37280;SDS011;23169;41.804;12.596;2023-04-01T04:38:25;34.22;;;9.93;;
37280;SDS011;23169;41.804;12.596;2023-04-01T04:40:55;34.95;;;13.05;;
37280;SDS011;23169;41.804;12.596;2023-04-01T04:43:24;40.47;;;10.90;;
37280;SDS011;23169;41.804;12.596;2023-04-01T04:45:53;37.03;;;10.18;;
37280;SDS011;23169;41.804;12.596;2023-04-01T04:48:21;39.88;;;11.23;;
37280;SDS011;23169;41.804;12.596;2023-04-01T04:50:50;29.77;;;10.68;;
37280;SDS011;23169;41.804;12.596;2023-04-01T04:53:19;33.80;;;12.13;;
37280;SDS011;23169;41.804;12.596;2023-04-01T04:55:48;36.78;;;11.88;;
37280;SDS011;23169;41.804;12.596;2023-04-01T04:58:17;36.45;;;10.82;;
37280;SDS011;23169;41.804;12.596;2023-04-01T05:00:47;41.90;;;12.98;;
37280;SDS011;23169;41.804;12.596;2023-04-01T05:03:16;35.42;;;9.75;;
37280;SDS011;23169;41.804;12.596;2023-04-01T05:05:49;33.50;;;8.98;;
37280;SDS011;23169;41.804;12.596;2023-04-01T05:08:21;30.73;;;9.00;;
37280;SDS011;23169;41.804;12.596;2023-04-01T05:10:50;35.92;;;9.20;;
37280;SDS011;23169;41.804;12.596;2023-04-01T05:13:22;38.88;;;9.35;;
37280;SDS011;23169;41.804;12.596;2023-04-01T05:15:50;37.58;;;10.25;;
37280;SDS011;23169;41.804;12.596;2023-04-01T05:18:19;36.28;;;9.63;;
37280;SDS011;23169;41.804;12.596;2023-04-01T05:20:51;35.03;;;9.02;;
37280;SDS011;23169;41.804;12.596;2023-04-01T05:23:21;34.85;;;8.68;;
37280;SDS011;23169;41.804;12.596;2023-04-01T05:25:51;36.03;;;10.10;;
37280;SDS011;23169;41.804;12.596;2023-04-01T05:28:20;35.70;;;9.05;;
37280;SDS011;23169;41.804;12.596;2023-04-01T05:30:48;31.58;;;8.77;;
37280;SDS011;23169;41.804;12.596;2023-04-01T05:33:17;26.83;;;8.32;;
37280;SDS011;23169;41.804;12.596;2023-04-01T05:35:46;31.73;;;8.60;;
37280;SDS011;23169;41.804;12.596;2023-04-01T05:38:14;36.08;;;8.80;;
37280;SDS011;23169;41.804;12.596;2023-04-01T05:40:43;33.03;;;9.00;;
37280;SDS011;23169;41.804;12.596;2023-04-01T05:43:12;34.53;;;9.13;;
37280;SDS011;23169;41.804;12.596;2023-04-01T05:45:41;39.25;;;9.77;;
37280;SDS011;23169;41.804;12.596;2023-04-01T05:48:10;40.28;;;10.02;;
37280;SDS011;23169;41.804;12.596;2023-04-01T05:50:39;35.35;;;8.68;;
37280;SDS011;23169;41.804;12.596;2023-04-01T05:53:10;36.17;;;8.82;;
37280;SDS011;23169;41.804;12.596;2023-04-01T05:55:38;35.60;;;8.88;;
37280;SDS011;23169;41.804;12.596;2023-04-01T05:58:07;25.17;;;7.90;;
37280;SDS011;23169;41.804;12.596;2023-04-01T06:00:38;27.23;;;7.90;;
37280;SDS011;23169;41.804;12.596;2023-04-01T06:03:07;35.10;;;8.50;;
37280;SDS011;23169;41.804;12.596;2023-04-01T06:05:42;29.23;;;8.23;;
37280;SDS011;23169;41.804;12.596;2023-04-01T06:08:13;33.58;;;8.38;;
37280;SDS011;23169;41.804;12.596;2023-04-01T06:16:44;28.20;;;8.82;;
37280;SDS011;23169;41.804;12.596;2023-04-01T06:22:27;29.02;;;8.35;;
37280;SDS011;23169;41.804;12.596;2023-04-01T06:34:23;29.05;;;7.55;;
37280;SDS011;23169;41.804;12.596;2023-04-01T06:54:15;19.77;;;4.97;;
37280;SDS011;23169;41.804;12.596;2023-04-01T06:57:00;21.73;;;4.88;;
37280;SDS011;23169;41.804;12.596;2023-04-01T06:59:38;24.70;;;6.13;;
37280;SDS011;23169;41.804;12.596;2023-04-01T07:04:55;20.42;;;6.38;;
37280;SDS011;23169;41.804;12.596;2023-04-01T07:09:56;18.50;;;4.95;;
37280;SDS011;23169;41.804;12.596;2023-04-01T07:15:02;15.38;;;4.55;;
37280;SDS011;23169;41.804;12.596;2023-04-01T07:17:42;18.42;;;5.10;;
37280;SDS011;23169;41.804;12.596;2023-04-01T07:22:54;19.45;;;4.90;;
37280;SDS011;23169;41.804;12.596;2023-04-01T07:25:44;23.10;;;4.57;;
37280;SDS011;23169;41.804;12.596;2023-04-01T07:28:16;18.55;;;4.00;;
37280;SDS011;23169;41.804;12.596;2023-04-01T07:30:52;16.40;;;4.40;;
37280;SDS011;23169;41.804;12.596;2023-04-01T07:34:07;18.77;;;4.35;;
37280;SDS011;23169;41.804;12.596;2023-04-01T07:42:27;15.00;;;4.10;;
37280;SDS011;23169;41.804;12.596;2023-04-01T07:45:21;20.42;;;3.85;;
37280;SDS011;23169;41.804;12.596;2023-04-01T07:48:58;17.40;;;3.30;;
37280;SDS011;23169;41.804;12.596;2023-04-01T07:53:45;19.42;;;3.80;;
37280;SDS011;23169;41.804;12.596;2023-04-01T07:59:06;21.02;;;4.55;;
37280;SDS011;23169;41.804;12.596;2023-04-01T08:02:05;15.48;;;3.40;;
37280;SDS011;23169;41.804;12.596;2023-04-01T08:07:35;18.08;;;4.07;;
37280;SDS011;23169;41.804;12.596;2023-04-01T08:10:24;19.63;;;4.30;;
37280;SDS011;23169;41.804;12.596;2023-04-01T08:15:45;18.73;;;3.35;;
37280;SDS011;23169;41.804;12.596;2023-04-01T08:20:57;19.50;;;3.83;;
37280;SDS011;23169;41.804;12.596;2023-04-01T08:23:28;16.27;;;4.28;;
37280;SDS011;23169;41.804;12.596;2023-04-01T08:26:25;17.88;;;3.40;;
37280;SDS011;23169;41.804;12.596;2023-04-01T08:29:02;17.77;;;4.10;;
37280;SDS011;23169;41.804;12.596;2023-04-01T08:31:37;20.10;;;3.72;;
37280;SDS011;23169;41.804;12.596;2023-04-01T08:34:14;20.02;;;4.25;;
37280;SDS011;23169;41.804;12.596;2023-04-01T08:36:49;15.75;;;3.42;;
37280;SDS011;23169;41.804;12.596;2023-04-01T08:39:24;22.45;;;4.07;;
37280;SDS011;23169;41.804;12.596;2023-04-01T08:42:22;17.08;;;3.63;;
37280;SDS011;23169;41.804;12.596;2023-04-01T08:45:10;17.67;;;3.72;;
37280;SDS011;23169;41.804;12.596;2023-04-01T09:02:25;12.50;;;2.90;;
37280;SDS011;23169;41.804;12.596;2023-04-01T09:05:22;18.38;;;4.00;;
37280;SDS011;23169;41.804;12.596;2023-04-01T09:14:05;19.63;;;3.22;;
37280;SDS011;23169;41.804;12.596;2023-04-01T09:43:06;16.60;;;2.75;;
37280;SDS011;23169;41.804;12.596;2023-04-01T09:54:23;16.25;;;3.63;;
37280;SDS011;23169;41.804;12.596;2023-04-01T10:11:34;17.30;;;3.17;;
37280;SDS011;23169;41.804;12.596;2023-04-01T10:17:11;14.90;;;3.55;;
37280;SDS011;23169;41.804;12.596;2023-04-01T10:19:54;19.80;;;3.72;;
37280;SDS011;23169;41.804;12.596;2023-04-01T10:33:53;15.68;;;3.40;;
37280;SDS011;23169;41.804;12.596;2023-04-01T10:45:30;10.93;;;2.28;;
37280;SDS011;23169;41.804;12.596;2023-04-01T11:02:54;21.30;;;4.05;;
37280;SDS011;23169;41.804;12.596;2023-04-01T11:11:55;15.23;;;3.38;;
37280;SDS011;23169;41.804;12.596;2023-04-01T11:20:28;20.02;;;3.88;;
37280;SDS011;23169;41.804;12.596;2023-04-01T11:48:37;20.98;;;4.05;;
37280;SDS011;23169;41.804;12.596;2023-04-01T11:53:56;19.20;;;4.47;;
37280;SDS011;23169;41.804;12.596;2023-04-01T12:11:15;18.80;;;4.00;;
37280;SDS011;23169;41.804;12.596;2023-04-01T12:20:12;18.90;;;4.53;;
37280;SDS011;23169;41.804;12.596;2023-04-01T12:23:29;20.80;;;4.10;;
37280;SDS011;23169;41.804;12.596;2023-04-01T12:26:16;18.38;;;3.58;;
37280;SDS011;23169;41.804;12.596;2023-04-01T12:40:50;18.23;;;4.03;;
37280;SDS011;23169;41.804;12.596;2023-04-01T12:46:23;15.27;;;3.65;;
37280;SDS011;23169;41.804;12.596;2023-04-01T12:55:01;14.35;;;2.50;;
37280;SDS011;23169;41.804;12.596;2023-04-01T13:17:30;11.35;;;3.08;;
37280;SDS011;23169;41.804;12.596;2023-04-01T13:43:47;11.98;;;3.00;;
37280;SDS011;23169;41.804;12.596;2023-04-01T13:46:27;13.98;;;3.10;;
37280;SDS011;23169;41.804;12.596;2023-04-01T14:00:33;12.88;;;2.83;;
37280;SDS011;23169;41.804;12.596;2023-04-01T14:05:53;13.88;;;3.33;;
37280;SDS011;23169;41.804;12.596;2023-04-01T14:16:59;17.00;;;3.60;;
37280;SDS011;23169;41.804;12.596;2023-04-01T14:28:11;15.68;;;3.47;;
37280;SDS011;23169;41.804;12.596;2023-04-01T14:47:51;11.55;;;2.58;;
37280;SDS011;23169;41.804;12.596;2023-04-01T14:50:47;9.10;;;2.25;;
37280;SDS011;23169;41.804;12.596;2023-04-01T14:55:56;14.88;;;3.53;;
37280;SDS011;23169;41.804;12.596;2023-04-01T14:58:44;12.73;;;2.75;;
37280;SDS011;23169;41.804;12.596;2023-04-01T15:01:20;12.17;;;2.30;;
37280;SDS011;23169;41.804;12.596;2023-04-01T15:24:26;15.32;;;3.33;;
37280;SDS011;23169;41.804;12.596;2023-04-01T15:27:23;12.65;;;3.03;;
37280;SDS011;23169;41.804;12.596;2023-04-01T15:40:43;13.90;;;3.03;;
37280;SDS011;23169;41.804;12.596;2023-04-01T15:57:04;18.83;;;3.10;;
37280;SDS011;23169;41.804;12.596;2023-04-01T15:59:57;19.35;;;2.92;;
37280;SDS011;23169;41.804;12.596;2023-04-01T16:11:26;15.82;;;3.10;;
37280;SDS011;23169;41.804;12.596;2023-04-01T16:25:44;18.95;;;3.45;;
37280;SDS011;23169;41.804;12.596;2023-04-01T16:28:32;15.75;;;3.67;;
37280;SDS011;23169;41.804;12.596;2023-04-01T16:31:25;13.73;;;2.78;;
37280;SDS011;23169;41.804;12.596;2023-04-01T16:34:21;14.85;;;3.17;;
37280;SDS011;23169;41.804;12.596;2023-04-01T16:37:10;18.10;;;3.22;;
37280;SDS011;23169;41.804;12.596;2023-04-01T16:47:56;10.20;;;2.40;;
37280;SDS011;23169;41.804;12.596;2023-04-01T16:50:44;16.45;;;3.40;;
37280;SDS011;23169;41.804;12.596;2023-04-01T16:53:43;17.55;;;3.33;;
37280;SDS011;23169;41.804;12.596;2023-04-01T16:56:21;16.08;;;3.45;;
37280;SDS011;23169;41.804;12.596;2023-04-01T17:01:44;16.40;;;3.20;;
37280;SDS011;23169;41.804;12.596;2023-04-01T17:04:47;14.32;;;3.47;;
37280;SDS011;23169;41.804;12.596;2023-04-01T17:13:08;13.32;;;3.33;;
37280;SDS011;23169;41.804;12.596;2023-04-01T17:18:13;13.60;;;3.38;;
37280;SDS011;23169;41.804;12.596;2023-04-01T17:29:28;13.82;;;2.95;;
37280;SDS011;23169;41.804;12.596;2023-04-01T17:49:25;15.25;;;3.08;;
37280;SDS011;23169;41.804;12.596;2023-04-01T17:52:03;12.55;;;3.88;;
37280;SDS011;23169;41.804;12.596;2023-04-01T17:57:44;22.50;;;4.63;;
37280;SDS011;23169;41.804;12.596;2023-04-01T18:00:30;16.88;;;3.95;;
37280;SDS011;23169;41.804;12.596;2023-04-01T18:11:34;21.95;;;4.75;;
37280;SDS011;23169;41.804;12.596;2023-04-01T18:22:22;21.83;;;3.83;;
37280;SDS011;23169;41.804;12.596;2023-04-01T18:36:26;19.88;;;4.50;;
37280;SDS011;23169;41.804;12.596;2023-04-01T18:44:50;23.23;;;5.63;;
37280;SDS011;23169;41.804;12.596;2023-04-01T18:48:03;27.52;;;6.32;;
37280;SDS011;23169;41.804;12.596;2023-04-01T18:50:54;28.33;;;6.20;;
37280;SDS011;23169;41.804;12.596;2023-04-01T18:59:04;36.38;;;7.53;;
37280;SDS011;23169;41.804;12.596;2023-04-01T19:04:33;34.13;;;8.27;;
37280;SDS011;23169;41.804;12.596;2023-04-01T19:10:13;33.25;;;7.43;;
37280;SDS011;23169;41.804;12.596;2023-04-01T19:13:02;32.88;;;6.80;;
37280;SDS011;23169;41.804;12.596;2023-04-01T19:32:01;35.92;;;8.68;;
37280;SDS011;23169;41.804;12.596;2023-04-01T19:37:40;34.63;;;8.18;;
37280;SDS011;23169;41.804;12.596;2023-04-01T19:54:26;34.00;;;7.97;;
37280;SDS011;23169;41.804;12.596;2023-04-01T19:57:12;31.60;;;6.90;;
37280;SDS011;23169;41.804;12.596;2023-04-01T20:02:56;30.83;;;7.07;;
37280;SDS011;23169;41.804;12.596;2023-04-01T20:08:41;30.20;;;6.47;;
37280;SDS011;23169;41.804;12.596;2023-04-01T20:13:48;32.83;;;7.88;;
37280;SDS011;23169;41.804;12.596;2023-04-01T20:16:43;31.38;;;7.50;;
37280;SDS011;23169;41.804;12.596;2023-04-01T20:19:25;36.97;;;7.32;;
37280;SDS011;23169;41.804;12.596;2023-04-01T20:25:09;37.47;;;7.88;;
37280;SDS011;23169;41.804;12.596;2023-04-01T20:27:50;42.85;;;7.93;;
37280;SDS011;23169;41.804;12.596;2023-04-01T20:44:09;41.60;;;10.05;;
37280;SDS011;23169;41.804;12.596;2023-04-01T21:06:29;29.85;;;7.30;;
37280;SDS011;23169;41.804;12.596;2023-04-01T21:11:42;31.20;;;6.53;;
37280;SDS011;23169;41.804;12.596;2023-04-01T21:29:25;31.73;;;6.68;;
37280;SDS011;23169;41.804;12.596;2023-04-01T21:37:41;29.63;;;6.30;;
37280;SDS011;23169;41.804;12.596;2023-04-01T21:54:31;33.97;;;6.97;;
37280;SDS011;23169;41.804;12.596;2023-04-01T22:11:28;29.42;;;6.47;;
37280;SDS011;23169;41.804;12.596;2023-04-01T22:17:16;29.52;;;7.45;;
37280;SDS011;23169;41.804;12.596;2023-04-01T22:20:00;25.77;;;5.97;;
37280;SDS011;23169;41.804;12.596;2023-04-01T22:22:52;31.75;;;6.53;;
37280;SDS011;23169;41.804;12.596;2023-04-01T22:25:29;22.42;;;5.70;;
37280;SDS011;23169;41.804;12.596;2023-04-01T22:27:58;27.15;;;6.63;;
37280;SDS011;23169;41.804;12.596;2023-04-01T22:30:36;28.77;;;6.20;;
37280;SDS011;23169;41.804;12.596;2023-04-01T22:33:14;27.70;;;6.22;;
37280;SDS011;23169;41.804;12.596;2023-04-01T22:38:24;26.40;;;6.18;;
37280;SDS011;23169;41.804;12.596;2023-04-01T22:41:22;27.17;;;6.15;;
37280;SDS011;23169;41.804;12.596;2023-04-01T22:49:38;29.10;;;6.03;;
37280;SDS011;23169;41.804;12.596;2023-04-01T22:54:57;27.45;;;6.32;;
37280;SDS011;23169;41.804;12.596;2023-04-01T23:00:23;21.65;;;6.00;;
37280;SDS011;23169;41.804;12.596;2023-04-01T23:05:37;27.75;;;7.22;;
37280;SDS011;23169;41.804;12.596;2023-04-01T23:11:23;32.50;;;6.63;;
37280;SDS011;23169;41.804;12.596;2023-04-01T23:16:32;25.20;;;6.40;;
37280;SDS011;23169;41.804;12.596;2023-04-01T23:19:11;23.45;;;5.85;;
37280;SDS011;23169;41.804;12.596;2023-04-01T23:21:49;27.45;;;6.72;;
37280;SDS011;23169;41.804;12.596;2023-04-01T23:24:30;29.30;;;6.78;;
37280;SDS011;23169;41.804;12.596;2023-04-01T23:27:08;23.73;;;5.75;;
37280;SDS011;23169;41.804;12.596;2023-04-01T23:29:41;29.55;;;5.57;;
37280;SDS011;23169;41.804;12.596;2023-04-01T23:32:15;32.50;;;6.60;;
37280;SDS011;23169;41.804;12.596;2023-04-01T23:34:49;27.88;;;6.03;;
37280;SDS011;23169;41.804;12.596;2023-04-01T23:37:19;24.88;;;5.43;;
37280;SDS011;23169;41.804;12.596;2023-04-01T23:39:54;25.88;;;6.30;;
37280;SDS011;23169;41.804;12.596;2023-04-01T23:45:11;24.92;;;5.70;;
37280;SDS011;23169;41.804;12.596;2023-04-01T23:47:45;24.70;;;5.63;;
37280;SDS011;23169;41.804;12.596;2023-04-01T23:50:17;22.33;;;4.88;;
37280;SDS011;23169;41.804;12.596;2023-04-01T23:53:03;27.52;;;5.50;;
37280;SDS011;23169;41.804;12.596;2023-04-01T23:55:41;22.90;;;5.60;;
